createdAt,value
2022-10-16T00:03:59.842Z,14.2
2022-10-16T00:09:01.815Z,14.2
2022-10-16T00:14:03.773Z,14.2
2022-10-16T00:19:06.429Z,14.2
2022-10-16T00:24:08.506Z,14.1
2022-10-16T00:29:10.487Z,14.1
2022-10-16T00:34:12.426Z,14.1
2022-10-16T00:39:14.387Z,14.1
2022-10-16T00:44:16.506Z,14.1
2022-10-16T00:49:18.439Z,14.1
2022-10-16T00:54:20.420Z,14
2022-10-16T00:59:22.763Z,14
2022-10-16T01:09:25.726Z,14
2022-10-16T01:14:27.775Z,13.9
2022-10-16T01:19:29.896Z,13.9
2022-10-16T01:24:32.277Z,13.8
2022-10-16T01:29:34.775Z,13.8
2022-10-16T01:34:36.729Z,13.7
2022-10-16T01:39:38.944Z,13.7
2022-10-16T01:44:40.907Z,13.6
2022-10-16T01:49:42.870Z,13.5
2022-10-16T01:54:45.687Z,13.2
2022-10-16T01:59:48.149Z,13
2022-10-16T02:04:50.062Z,13
2022-10-16T02:14:52.489Z,12.7
2022-10-16T02:19:54.607Z,12.6
2022-10-16T02:34:58.464Z,12.4
2022-10-16T02:40:00.444Z,12.3
2022-10-16T02:45:03.011Z,12.1
2022-10-16T02:50:04.896Z,12.1
2022-10-16T02:55:06.754Z,12.1
2022-10-16T03:00:08.656Z,12
2022-10-16T03:05:10.734Z,11.9
2022-10-16T03:10:12.788Z,11.9
2022-10-16T03:15:14.940Z,11.8
2022-10-16T03:20:17.096Z,11.7
2022-10-16T03:25:19.179Z,11.6
2022-10-16T03:30:21.284Z,11.5
2022-10-16T03:35:23.265Z,11.5
2022-10-16T03:40:25.525Z,11.4
2022-10-16T03:45:27.579Z,11.3
2022-10-16T03:50:29.622Z,11.3
2022-10-16T03:55:31.568Z,11.2
2022-10-16T04:00:34.050Z,11
2022-10-16T04:05:35.967Z,11
2022-10-16T04:10:37.952Z,11
2022-10-16T04:15:40.295Z,10.9
2022-10-16T04:20:42.489Z,10.8
2022-10-16T04:25:44.427Z,10.8
2022-10-16T04:30:46.357Z,10.8
2022-10-16T04:35:48.472Z,10.7
2022-10-16T04:40:50.412Z,10.6
2022-10-16T04:45:52.642Z,10.4
2022-10-16T04:50:57.035Z,10.2
2022-10-16T04:55:59.119Z,10.2
2022-10-16T05:01:01.094Z,10.1
2022-10-16T05:06:02.981Z,10.1
2022-10-16T05:11:04.958Z,10.1
2022-10-16T05:16:06.870Z,10.1
2022-10-16T05:21:09.123Z,10.2
2022-10-16T05:26:11.019Z,10.3
2022-10-16T05:31:13.003Z,10.6
2022-10-16T05:36:15.349Z,10.6
2022-10-16T05:41:17.330Z,10.8
2022-10-16T05:46:19.371Z,11
2022-10-16T05:51:21.538Z,11.3
2022-10-16T05:56:23.443Z,11.7
2022-10-16T06:01:26.381Z,12.1
2022-10-16T06:06:28.533Z,12.1
2022-10-16T06:11:30.451Z,12.4
2022-10-16T06:16:32.367Z,12.5
2022-10-16T06:21:34.421Z,12.8
2022-10-16T06:26:36.570Z,13.9
2022-10-16T06:31:38.600Z,14.5
2022-10-16T06:36:40.703Z,14.5
2022-10-16T06:41:42.628Z,15.2
2022-10-16T06:46:44.603Z,14.7
2022-10-16T06:51:46.604Z,15.7
2022-10-16T06:56:48.514Z,16.2
2022-10-16T07:01:50.756Z,17
2022-10-16T07:06:53.223Z,17.3
2022-10-16T07:11:55.229Z,17.9
2022-10-16T07:21:57.762Z,21.2
2022-10-16T07:26:59.742Z,20.6
2022-10-16T07:32:02.330Z,22.5
2022-10-16T07:37:04.646Z,22.6
2022-10-16T07:42:06.681Z,22.6
2022-10-16T07:47:08.629Z,21.4
2022-10-16T07:52:10.563Z,20.6
2022-10-16T07:57:12.703Z,21.7
2022-10-16T08:02:14.645Z,22.3
2022-10-16T08:07:16.590Z,22.2
2022-10-16T08:12:18.486Z,22.4
2022-10-16T08:17:20.840Z,25.4
2022-10-16T08:22:23.093Z,25.3
2022-10-16T08:27:25.842Z,23.6
2022-10-16T08:42:31.454Z,22.8
2022-10-16T08:47:33.636Z,22.8
2022-10-16T08:52:35.553Z,25
2022-10-16T08:57:37.521Z,24.7
2022-10-16T09:02:39.675Z,24.1
2022-10-16T09:07:41.621Z,25.1
2022-10-16T09:17:44.284Z,25.1
2022-10-16T09:22:46.432Z,25.2
2022-10-16T09:27:48.729Z,27.7
2022-10-16T09:37:51.343Z,28.7
2022-10-16T09:42:53.318Z,28.3
2022-10-16T09:47:59.579Z,28.5
2022-10-16T09:53:01.764Z,28.3
2022-10-16T09:58:03.737Z,28.5
2022-10-16T10:08:06.177Z,29.8
2022-10-16T10:13:08.194Z,31.6
2022-10-16T10:18:10.053Z,29
2022-10-16T10:23:12.051Z,30.8
2022-10-16T10:28:14.187Z,31.2
2022-10-16T10:33:16.477Z,28.8
2022-10-16T10:38:18.340Z,28.5
2022-10-16T10:43:20.365Z,27.9
2022-10-16T10:48:22.990Z,28.1
2022-10-16T10:53:25.156Z,28
2022-10-16T10:58:29.009Z,27.5
2022-10-16T11:03:37.533Z,29.4
2022-10-16T11:08:39.707Z,29.4
2022-10-16T11:18:42.082Z,30
2022-10-16T11:23:44.140Z,30
2022-10-16T11:28:46.760Z,26.5
2022-10-16T11:33:48.785Z,26.4
2022-10-16T11:38:50.770Z,28.5
2022-10-16T11:43:52.993Z,29
2022-10-16T11:48:55.667Z,27
2022-10-16T11:53:59.957Z,26.8
2022-10-16T11:59:02.070Z,26.7
2022-10-16T12:04:04.468Z,27.1
2022-10-16T12:09:06.405Z,27
2022-10-16T12:14:08.573Z,27.9
2022-10-16T12:19:10.457Z,27.5
2022-10-16T12:29:13.605Z,25.8
2022-10-16T12:34:15.701Z,26
2022-10-16T12:39:17.593Z,26
2022-10-16T12:44:19.534Z,24.8
2022-10-16T12:49:21.389Z,24.5
2022-10-16T12:54:23.495Z,25.1
2022-10-16T12:59:25.374Z,24.4
2022-10-16T13:04:27.242Z,23.8
2022-10-16T13:09:29.177Z,22.7
2022-10-16T13:14:31.391Z,23.6
2022-10-16T13:19:33.397Z,22.5
2022-10-16T13:24:35.621Z,22.5
2022-10-16T13:29:37.559Z,22.1
2022-10-16T13:34:39.812Z,22
2022-10-16T13:39:41.727Z,21.3
2022-10-16T13:44:43.966Z,20.8
2022-10-16T13:49:45.831Z,20.9
2022-10-16T13:54:47.780Z,20.9
2022-10-16T13:59:49.675Z,20.8
2022-10-16T14:04:51.809Z,20.9
2022-10-16T14:09:53.665Z,20.6
2022-10-16T14:14:55.545Z,20.4
2022-10-16T14:20:07.604Z,20.4
2022-10-16T14:24:59.931Z,20.4
2022-10-16T14:35:02.205Z,20.4
2022-10-16T14:40:04.720Z,20.1
2022-10-16T14:45:06.674Z,20.1
2022-10-16T14:50:09.786Z,20
2022-10-16T14:55:11.921Z,19.9
2022-10-16T15:00:14.202Z,19.8
2022-10-16T15:05:16.242Z,19.7
2022-10-16T15:10:18.179Z,19.7
2022-10-16T15:15:20.085Z,19.6
2022-10-16T15:20:22.006Z,19.5
2022-10-16T15:25:24.211Z,19.4
2022-10-16T15:30:26.132Z,19.3
2022-10-16T15:35:28.246Z,19.1
2022-10-16T15:40:30.151Z,19
2022-10-16T15:45:32.055Z,18.9
2022-10-16T15:50:34.776Z,18.6
2022-10-16T15:55:36.729Z,18.6
2022-10-16T16:00:38.653Z,18.5
2022-10-16T16:05:47.772Z,18.2
2022-10-16T16:10:49.740Z,18.1
2022-10-16T16:15:51.751Z,18
2022-10-16T16:20:53.667Z,17.9
2022-10-16T16:25:55.645Z,17.7
2022-10-16T16:30:57.541Z,17.7
2022-10-16T16:35:59.706Z,17.6
2022-10-16T16:41:02.215Z,17.5
2022-10-16T16:46:04.597Z,17.4
2022-10-16T16:51:06.688Z,17.4
2022-10-16T16:56:08.611Z,17.3
2022-10-16T17:01:22.474Z,17.1
2022-10-16T17:06:14.549Z,17.1
2022-10-16T17:11:16.808Z,17.1
2022-10-16T17:16:18.676Z,17
2022-10-16T17:21:20.630Z,16.9
2022-10-16T17:26:22.968Z,16.8
2022-10-16T17:31:25.115Z,16.7
2022-10-16T17:36:27.078Z,16.7
2022-10-16T17:41:29.055Z,16.5
2022-10-16T17:46:31.083Z,16.4
2022-10-16T17:51:38.243Z,16.3
2022-10-16T17:56:40.335Z,16.1
2022-10-16T18:01:42.902Z,15.8
2022-10-16T18:06:45.059Z,15.7
2022-10-16T18:11:47.010Z,15.6
2022-10-16T18:21:52.020Z,15.3
2022-10-16T18:26:54.214Z,15.2
2022-10-16T18:31:56.689Z,15.2
2022-10-16T18:36:59.132Z,15.1
2022-10-16T18:42:01.192Z,15.1
2022-10-16T18:47:03.259Z,15.1
2022-10-16T18:52:05.881Z,15
2022-10-16T18:57:08.403Z,15
2022-10-16T19:02:10.310Z,15
2022-10-16T19:07:12.372Z,15.1
2022-10-16T19:12:14.411Z,15.2
2022-10-16T19:17:16.408Z,15.2
2022-10-16T19:24:13.538Z,15.2
2022-10-16T19:27:25.782Z,15
2022-10-16T19:32:29.444Z,14.9
2022-10-16T19:37:31.700Z,14.8
2022-10-16T19:42:33.774Z,15
2022-10-16T19:47:35.730Z,14.9
2022-10-16T19:52:38.191Z,14.8
2022-10-16T19:57:40.368Z,14.7
2022-10-16T20:02:42.487Z,14.6
2022-10-16T20:07:44.617Z,14.5
2022-10-16T20:12:46.770Z,14.4
2022-10-16T20:17:48.776Z,14.3
2022-10-16T20:22:51.017Z,14.2
2022-10-16T20:27:53.113Z,14.2
2022-10-16T20:32:55.542Z,14.1
2022-10-16T20:37:58.050Z,13.9
2022-10-16T20:43:00.076Z,13.9
2022-10-16T20:48:12.902Z,13.9
2022-10-16T20:53:04.952Z,13.9
2022-10-16T20:58:06.901Z,13.9
2022-10-16T21:03:08.852Z,13.9
2022-10-16T21:08:10.798Z,13.8
2022-10-16T21:13:12.745Z,14
2022-10-16T21:18:14.725Z,14
2022-10-16T21:23:16.660Z,14
2022-10-16T21:28:18.588Z,13.9
2022-10-16T21:33:20.727Z,13.9
2022-10-16T21:38:22.803Z,13.6
2022-10-16T21:43:25.047Z,13.2
2022-10-16T21:48:27.040Z,12.9
2022-10-16T21:53:29.015Z,12.8
2022-10-16T21:58:30.969Z,12.1
2022-10-16T22:03:33.193Z,11.8
2022-10-16T22:08:35.227Z,11.8
2022-10-16T22:13:37.460Z,11.8
2022-10-16T22:18:40.126Z,11.6
2022-10-16T22:23:42.194Z,11.6
2022-10-16T22:28:44.393Z,11.6
2022-10-16T22:33:46.625Z,11.6
2022-10-16T22:38:48.615Z,11.8
2022-10-16T22:43:50.595Z,11.8
2022-10-16T22:48:52.774Z,11.8
2022-10-16T22:53:56.859Z,11.8
2022-10-16T22:58:58.801Z,11.7
2022-10-16T23:04:00.980Z,11.7
2022-10-16T23:09:02.993Z,11.8
2022-10-16T23:14:05.090Z,11.7
2022-10-16T23:19:10.687Z,11.3
2022-10-16T23:24:12.907Z,11.3
2022-10-16T23:29:14.954Z,11.3
2022-10-16T23:34:17.172Z,11.4
2022-10-16T23:39:19.048Z,11.5
2022-10-16T23:44:20.993Z,11.5
2022-10-16T23:49:22.886Z,11.6
2022-10-16T23:54:24.771Z,11.7
2022-10-16T23:59:26.758Z,11.8
